sensor_id;sensor_type;location;lat;lon;timestamp;P1;durP1;ratioP1;P2;durP2;ratioP2
18947;SDS011;9607;51.600;7.558;2023-02-28T00:00:08;3.08;;;1.83;;
18947;SDS011;9607;51.600;7.558;2023-02-28T00:02:37;2.27;;;1.53;;
18947;SDS011;9607;51.600;7.558;2023-02-28T00:05:04;2.83;;;2.00;;
18947;SDS011;9607;51.600;7.558;2023-02-28T00:07:32;3.30;;;2.08;;
18947;SDS011;9607;51.600;7.558;2023-02-28T00:09:59;3.97;;;2.13;;
18947;SDS011;9607;51.600;7.558;2023-02-28T00:12:26;2.00;;;1.67;;
18947;SDS011;9607;51.600;7.558;2023-02-28T00:14:54;1.50;;;1.40;;
18947;SDS011;9607;51.600;7.558;2023-02-28T00:17:21;2.85;;;1.73;;
18947;SDS011;9607;51.600;7.558;2023-02-28T00:19:48;2.13;;;1.67;;
18947;SDS011;9607;51.600;7.558;2023-02-28T00:22:16;1.50;;;1.30;;
18947;SDS011;9607;51.600;7.558;2023-02-28T00:24:44;2.63;;;1.50;;
18947;SDS011;9607;51.600;7.558;2023-02-28T00:27:11;2.17;;;1.60;;
18947;SDS011;9607;51.600;7.558;2023-02-28T00:29:38;2.70;;;1.50;;
18947;SDS011;9607;51.600;7.558;2023-02-28T00:32:06;1.87;;;1.30;;
18947;SDS011;9607;51.600;7.558;2023-02-28T00:34:33;2.83;;;1.77;;
18947;SDS011;9607;51.600;7.558;2023-02-28T00:37:02;2.70;;;1.47;;
18947;SDS011;9607;51.600;7.558;2023-02-28T00:39:30;2.15;;;1.85;;
18947;SDS011;9607;51.600;7.558;2023-02-28T00:41:59;2.67;;;1.70;;
18947;SDS011;9607;51.600;7.558;2023-02-28T00:44:26;2.77;;;1.80;;
18947;SDS011;9607;51.600;7.558;2023-02-28T00:46:52;3.20;;;2.20;;
18947;SDS011;9607;51.600;7.558;2023-02-28T00:49:22;3.47;;;1.70;;
18947;SDS011;9607;51.600;7.558;2023-02-28T00:51:48;2.30;;;1.83;;
18947;SDS011;9607;51.600;7.558;2023-02-28T00:54:15;2.23;;;1.77;;
18947;SDS011;9607;51.600;7.558;2023-02-28T00:56:42;2.50;;;1.67;;
18947;SDS011;9607;51.600;7.558;2023-02-28T00:59:10;2.43;;;1.80;;
18947;SDS011;9607;51.600;7.558;2023-02-28T01:01:37;3.27;;;1.70;;
18947;SDS011;9607;51.600;7.558;2023-02-28T01:04:04;2.53;;;1.33;;
18947;SDS011;9607;51.600;7.558;2023-02-28T01:06:32;4.03;;;2.00;;
18947;SDS011;9607;51.600;7.558;2023-02-28T01:08:59;3.37;;;1.80;;
18947;SDS011;9607;51.600;7.558;2023-02-28T01:11:27;2.90;;;1.43;;
18947;SDS011;9607;51.600;7.558;2023-02-28T01:13:54;1.60;;;1.50;;
18947;SDS011;9607;51.600;7.558;2023-02-28T01:16:20;2.03;;;1.50;;
18947;SDS011;9607;51.600;7.558;2023-02-28T01:18:47;2.37;;;1.63;;
18947;SDS011;9607;51.600;7.558;2023-02-28T01:21:15;2.47;;;1.80;;
18947;SDS011;9607;51.600;7.558;2023-02-28T01:23:47;1.93;;;1.63;;
18947;SDS011;9607;51.600;7.558;2023-02-28T01:26:15;1.83;;;1.50;;
18947;SDS011;9607;51.600;7.558;2023-02-28T01:28:43;2.47;;;1.70;;
18947;SDS011;9607;51.600;7.558;2023-02-28T01:31:10;2.43;;;1.70;;
18947;SDS011;9607;51.600;7.558;2023-02-28T01:33:37;2.20;;;1.67;;
18947;SDS011;9607;51.600;7.558;2023-02-28T01:36:06;1.90;;;1.70;;
18947;SDS011;9607;51.600;7.558;2023-02-28T01:38:35;3.23;;;1.93;;
18947;SDS011;9607;51.600;7.558;2023-02-28T01:41:04;1.40;;;1.30;;
18947;SDS011;9607;51.600;7.558;2023-02-28T01:43:31;3.43;;;1.50;;
18947;SDS011;9607;51.600;7.558;2023-02-28T01:46:18;2.30;;;1.50;;
18947;SDS011;9607;51.600;7.558;2023-02-28T01:48:45;1.33;;;1.23;;
18947;SDS011;9607;51.600;7.558;2023-02-28T01:51:15;1.93;;;1.57;;
18947;SDS011;9607;51.600;7.558;2023-02-28T01:53:47;1.60;;;1.40;;
18947;SDS011;9607;51.600;7.558;2023-02-28T01:56:19;1.70;;;1.60;;
18947;SDS011;9607;51.600;7.558;2023-02-28T01:58:49;1.67;;;1.30;;
18947;SDS011;9607;51.600;7.558;2023-02-28T02:01:17;1.77;;;1.47;;
18947;SDS011;9607;51.600;7.558;2023-02-28T02:03:46;1.33;;;1.23;;
18947;SDS011;9607;51.600;7.558;2023-02-28T02:06:20;1.60;;;1.40;;
18947;SDS011;9607;51.600;7.558;2023-02-28T02:08:47;1.43;;;1.30;;
18947;SDS011;9607;51.600;7.558;2023-02-28T02:11:14;2.10;;;1.60;;
18947;SDS011;9607;51.600;7.558;2023-02-28T02:13:53;4.30;;;2.30;;
18947;SDS011;9607;51.600;7.558;2023-02-28T02:16:50;5.93;;;2.33;;
18947;SDS011;9607;51.600;7.558;2023-02-28T02:19:40;3.33;;;2.47;;
18947;SDS011;9607;51.600;7.558;2023-02-28T02:22:32;3.33;;;2.30;;
18947;SDS011;9607;51.600;7.558;2023-02-28T02:25:23;2.03;;;1.83;;
18947;SDS011;9607;51.600;7.558;2023-02-28T02:28:02;2.03;;;1.73;;
18947;SDS011;9607;51.600;7.558;2023-02-28T02:30:57;1.93;;;1.70;;
18947;SDS011;9607;51.600;7.558;2023-02-28T02:34:00;2.03;;;1.67;;
18947;SDS011;9607;51.600;7.558;2023-02-28T02:37:02;1.60;;;1.50;;
18947;SDS011;9607;51.600;7.558;2023-02-28T02:39:43;1.90;;;1.63;;
18947;SDS011;9607;51.600;7.558;2023-02-28T02:42:16;3.00;;;2.20;;
18947;SDS011;9607;51.600;7.558;2023-02-28T02:44:47;5.00;;;2.70;;
18947;SDS011;9607;51.600;7.558;2023-02-28T02:47:20;3.87;;;2.80;;
18947;SDS011;9607;51.600;7.558;2023-02-28T02:49:52;2.43;;;2.00;;
18947;SDS011;9607;51.600;7.558;2023-02-28T02:52:22;4.63;;;2.60;;
18947;SDS011;9607;51.600;7.558;2023-02-28T02:54:51;2.67;;;2.47;;
18947;SDS011;9607;51.600;7.558;2023-02-28T02:57:21;5.50;;;2.80;;
18947;SDS011;9607;51.600;7.558;2023-02-28T02:59:53;3.37;;;1.80;;
18947;SDS011;9607;51.600;7.558;2023-02-28T03:02:22;3.03;;;2.10;;
18947;SDS011;9607;51.600;7.558;2023-02-28T03:04:53;3.83;;;2.33;;
18947;SDS011;9607;51.600;7.558;2023-02-28T03:07:25;1.90;;;1.70;;
18947;SDS011;9607;51.600;7.558;2023-02-28T03:09:53;1.90;;;1.70;;
18947;SDS011;9607;51.600;7.558;2023-02-28T03:12:21;1.70;;;1.60;;
18947;SDS011;9607;51.600;7.558;2023-02-28T03:14:59;2.50;;;1.80;;
18947;SDS011;9607;51.600;7.558;2023-02-28T03:17:45;1.77;;;1.60;;
18947;SDS011;9607;51.600;7.558;2023-02-28T03:20:22;1.90;;;1.57;;
18947;SDS011;9607;51.600;7.558;2023-02-28T03:23:02;1.57;;;1.47;;
18947;SDS011;9607;51.600;7.558;2023-02-28T03:25:42;1.50;;;1.40;;
18947;SDS011;9607;51.600;7.558;2023-02-28T03:28:19;2.10;;;1.60;;
18947;SDS011;9607;51.600;7.558;2023-02-28T03:30:50;1.90;;;1.70;;
18947;SDS011;9607;51.600;7.558;2023-02-28T03:33:21;1.23;;;1.17;;
18947;SDS011;9607;51.600;7.558;2023-02-28T03:35:55;1.97;;;1.60;;
18947;SDS011;9607;51.600;7.558;2023-02-28T03:38:26;1.83;;;1.40;;
18947;SDS011;9607;51.600;7.558;2023-02-28T03:40:57;1.80;;;1.60;;
18947;SDS011;9607;51.600;7.558;2023-02-28T03:43:30;2.00;;;1.40;;
18947;SDS011;9607;51.600;7.558;2023-02-28T03:46:02;1.67;;;1.50;;
18947;SDS011;9607;51.600;7.558;2023-02-28T03:48:34;1.70;;;1.50;;
18947;SDS011;9607;51.600;7.558;2023-02-28T03:51:09;3.37;;;2.10;;
18947;SDS011;9607;51.600;7.558;2023-02-28T03:53:42;3.13;;;2.30;;
18947;SDS011;9607;51.600;7.558;2023-02-28T03:56:13;3.50;;;2.30;;
18947;SDS011;9607;51.600;7.558;2023-02-28T03:58:44;3.03;;;2.50;;
18947;SDS011;9607;51.600;7.558;2023-02-28T04:01:19;2.63;;;2.20;;
18947;SDS011;9607;51.600;7.558;2023-02-28T04:03:50;3.00;;;2.00;;
18947;SDS011;9607;51.600;7.558;2023-02-28T04:06:19;3.07;;;2.20;;
18947;SDS011;9607;51.600;7.558;2023-02-28T04:08:48;1.80;;;1.70;;
18947;SDS011;9607;51.600;7.558;2023-02-28T04:11:17;3.03;;;1.90;;
18947;SDS011;9607;51.600;7.558;2023-02-28T04:13:47;3.30;;;2.20;;
18947;SDS011;9607;51.600;7.558;2023-02-28T04:16:14;1.67;;;1.57;;
18947;SDS011;9607;51.600;7.558;2023-02-28T04:18:41;1.93;;;1.70;;
18947;SDS011;9607;51.600;7.558;2023-02-28T04:21:09;2.07;;;1.80;;
18947;SDS011;9607;51.600;7.558;2023-02-28T04:23:38;2.77;;;1.80;;
18947;SDS011;9607;51.600;7.558;2023-02-28T04:26:04;1.87;;;1.57;;
18947;SDS011;9607;51.600;7.558;2023-02-28T04:28:32;1.63;;;1.40;;
18947;SDS011;9607;51.600;7.558;2023-02-28T04:31:00;1.77;;;1.57;;
18947;SDS011;9607;51.600;7.558;2023-02-28T04:33:30;1.70;;;1.40;;
18947;SDS011;9607;51.600;7.558;2023-02-28T04:35:58;1.43;;;1.33;;
18947;SDS011;9607;51.600;7.558;2023-02-28T04:38:26;1.77;;;1.50;;
18947;SDS011;9607;51.600;7.558;2023-02-28T04:40:56;1.67;;;1.53;;
18947;SDS011;9607;51.600;7.558;2023-02-28T04:43:23;2.37;;;1.60;;
18947;SDS011;9607;51.600;7.558;2023-02-28T04:45:50;2.30;;;1.67;;
18947;SDS011;9607;51.600;7.558;2023-02-28T04:48:17;1.67;;;1.57;;
18947;SDS011;9607;51.600;7.558;2023-02-28T04:50:44;2.73;;;1.83;;
18947;SDS011;9607;51.600;7.558;2023-02-28T04:53:10;5.17;;;2.90;;
18947;SDS011;9607;51.600;7.558;2023-02-28T04:55:37;4.37;;;3.00;;
18947;SDS011;9607;51.600;7.558;2023-02-28T04:58:07;5.33;;;3.20;;
18947;SDS011;9607;51.600;7.558;2023-02-28T05:00:34;2.93;;;2.43;;
18947;SDS011;9607;51.600;7.558;2023-02-28T05:03:01;3.00;;;2.70;;
18947;SDS011;9607;51.600;7.558;2023-02-28T05:05:28;3.07;;;2.40;;
18947;SDS011;9607;51.600;7.558;2023-02-28T05:07:55;2.37;;;1.80;;
18947;SDS011;9607;51.600;7.558;2023-02-28T05:10:22;3.97;;;2.83;;
18947;SDS011;9607;51.600;7.558;2023-02-28T05:12:49;5.03;;;2.57;;
18947;SDS011;9607;51.600;7.558;2023-02-28T05:15:17;6.10;;;3.53;;
18947;SDS011;9607;51.600;7.558;2023-02-28T05:17:45;3.60;;;2.33;;
18947;SDS011;9607;51.600;7.558;2023-02-28T05:20:12;4.67;;;3.07;;
18947;SDS011;9607;51.600;7.558;2023-02-28T05:22:39;5.43;;;2.67;;
18947;SDS011;9607;51.600;7.558;2023-02-28T05:25:08;3.43;;;2.40;;
18947;SDS011;9607;51.600;7.558;2023-02-28T05:27:37;3.53;;;2.43;;
18947;SDS011;9607;51.600;7.558;2023-02-28T05:30:04;3.47;;;2.10;;
18947;SDS011;9607;51.600;7.558;2023-02-28T05:32:36;3.10;;;2.10;;
18947;SDS011;9607;51.600;7.558;2023-02-28T05:35:03;3.33;;;2.47;;
18947;SDS011;9607;51.600;7.558;2023-02-28T05:37:31;2.00;;;1.77;;
18947;SDS011;9607;51.600;7.558;2023-02-28T05:39:58;2.80;;;1.90;;
18947;SDS011;9607;51.600;7.558;2023-02-28T05:42:24;2.20;;;1.90;;
18947;SDS011;9607;51.600;7.558;2023-02-28T05:44:51;4.20;;;2.70;;
18947;SDS011;9607;51.600;7.558;2023-02-28T05:47:18;2.63;;;1.90;;
18947;SDS011;9607;51.600;7.558;2023-02-28T05:49:46;3.10;;;2.43;;
18947;SDS011;9607;51.600;7.558;2023-02-28T05:52:13;2.13;;;1.93;;
18947;SDS011;9607;51.600;7.558;2023-02-28T05:54:40;2.43;;;1.87;;
18947;SDS011;9607;51.600;7.558;2023-02-28T05:57:07;2.37;;;2.00;;
18947;SDS011;9607;51.600;7.558;2023-02-28T05:59:34;3.60;;;2.80;;
18947;SDS011;9607;51.600;7.558;2023-02-28T06:02:04;6.07;;;4.10;;
18947;SDS011;9607;51.600;7.558;2023-02-28T06:04:32;5.53;;;3.33;;
18947;SDS011;9607;51.600;7.558;2023-02-28T06:07:00;4.53;;;3.40;;
18947;SDS011;9607;51.600;7.558;2023-02-28T06:09:28;4.53;;;3.27;;
18947;SDS011;9607;51.600;7.558;2023-02-28T06:11:57;4.33;;;3.10;;
18947;SDS011;9607;51.600;7.558;2023-02-28T06:14:24;4.03;;;2.63;;
18947;SDS011;9607;51.600;7.558;2023-02-28T06:16:51;3.13;;;2.47;;
18947;SDS011;9607;51.600;7.558;2023-02-28T06:19:18;2.53;;;2.20;;
18947;SDS011;9607;51.600;7.558;2023-02-28T06:21:45;3.17;;;2.53;;
18947;SDS011;9607;51.600;7.558;2023-02-28T06:24:17;3.90;;;2.57;;
18947;SDS011;9607;51.600;7.558;2023-02-28T06:26:44;2.20;;;1.90;;
18947;SDS011;9607;51.600;7.558;2023-02-28T06:29:11;3.03;;;2.20;;
18947;SDS011;9607;51.600;7.558;2023-02-28T06:31:42;3.20;;;2.07;;
18947;SDS011;9607;51.600;7.558;2023-02-28T06:34:11;3.27;;;2.87;;
18947;SDS011;9607;51.600;7.558;2023-02-28T06:36:38;3.00;;;2.60;;
18947;SDS011;9607;51.600;7.558;2023-02-28T06:39:08;5.33;;;3.23;;
18947;SDS011;9607;51.600;7.558;2023-02-28T06:41:37;6.63;;;3.57;;
18947;SDS011;9607;51.600;7.558;2023-02-28T06:44:05;7.73;;;3.77;;
18947;SDS011;9607;51.600;7.558;2023-02-28T06:46:38;4.73;;;3.40;;
18947;SDS011;9607;51.600;7.558;2023-02-28T06:49:05;3.83;;;2.87;;
18947;SDS011;9607;51.600;7.558;2023-02-28T06:51:34;5.77;;;4.13;;
18947;SDS011;9607;51.600;7.558;2023-02-28T06:54:01;7.47;;;4.57;;
18947;SDS011;9607;51.600;7.558;2023-02-28T06:56:28;5.73;;;4.30;;
18947;SDS011;9607;51.600;7.558;2023-02-28T06:58:56;4.90;;;3.53;;
18947;SDS011;9607;51.600;7.558;2023-02-28T07:01:23;4.43;;;3.40;;
18947;SDS011;9607;51.600;7.558;2023-02-28T07:03:50;4.40;;;3.07;;
18947;SDS011;9607;51.600;7.558;2023-02-28T07:06:18;3.90;;;3.10;;
18947;SDS011;9607;51.600;7.558;2023-02-28T07:08:44;6.03;;;3.70;;
18947;SDS011;9607;51.600;7.558;2023-02-28T07:11:11;4.47;;;3.50;;
18947;SDS011;9607;51.600;7.558;2023-02-28T07:13:38;5.40;;;3.97;;
18947;SDS011;9607;51.600;7.558;2023-02-28T07:16:07;5.30;;;3.70;;
18947;SDS011;9607;51.600;7.558;2023-02-28T07:18:36;5.70;;;4.00;;
18947;SDS011;9607;51.600;7.558;2023-02-28T07:21:04;9.53;;;4.00;;
18947;SDS011;9607;51.600;7.558;2023-02-28T07:23:32;5.13;;;3.20;;
18947;SDS011;9607;51.600;7.558;2023-02-28T07:25:59;4.83;;;3.30;;
18947;SDS011;9607;51.600;7.558;2023-02-28T07:28:26;3.53;;;3.00;;
18947;SDS011;9607;51.600;7.558;2023-02-28T07:30:53;4.57;;;2.93;;
18947;SDS011;9607;51.600;7.558;2023-02-28T07:33:21;4.37;;;2.87;;
18947;SDS011;9607;51.600;7.558;2023-02-28T07:35:49;4.63;;;3.40;;
18947;SDS011;9607;51.600;7.558;2023-02-28T07:38:18;5.00;;;3.10;;
18947;SDS011;9607;51.600;7.558;2023-02-28T07:40:45;3.80;;;3.07;;
18947;SDS011;9607;51.600;7.558;2023-02-28T07:43:12;4.80;;;3.60;;
18947;SDS011;9607;51.600;7.558;2023-02-28T07:45:39;6.40;;;3.27;;
18947;SDS011;9607;51.600;7.558;2023-02-28T07:48:06;4.13;;;3.47;;
18947;SDS011;9607;51.600;7.558;2023-02-28T07:50:36;6.20;;;4.07;;
18947;SDS011;9607;51.600;7.558;2023-02-28T07:53:03;9.43;;;5.07;;
18947;SDS011;9607;51.600;7.558;2023-02-28T07:55:30;6.33;;;4.77;;
18947;SDS011;9607;51.600;7.558;2023-02-28T07:57:57;5.23;;;3.87;;
18947;SDS011;9607;51.600;7.558;2023-02-28T08:00:24;8.17;;;5.60;;
18947;SDS011;9607;51.600;7.558;2023-02-28T08:02:50;6.53;;;4.20;;
18947;SDS011;9607;51.600;7.558;2023-02-28T08:05:17;6.83;;;4.90;;
18947;SDS011;9607;51.600;7.558;2023-02-28T08:07:45;5.90;;;4.40;;
18947;SDS011;9607;51.600;7.558;2023-02-28T08:10:12;5.10;;;3.80;;
18947;SDS011;9607;51.600;7.558;2023-02-28T08:12:39;4.80;;;4.10;;
18947;SDS011;9607;51.600;7.558;2023-02-28T08:15:06;4.83;;;3.80;;
18947;SDS011;9607;51.600;7.558;2023-02-28T08:17:34;5.83;;;5.07;;
18947;SDS011;9607;51.600;7.558;2023-02-28T08:20:01;6.13;;;4.90;;
18947;SDS011;9607;51.600;7.558;2023-02-28T08:22:29;6.93;;;4.70;;
18947;SDS011;9607;51.600;7.558;2023-02-28T08:24:57;4.73;;;3.90;;
18947;SDS011;9607;51.600;7.558;2023-02-28T08:27:24;5.57;;;4.05;;
18947;SDS011;9607;51.600;7.558;2023-02-28T08:29:50;5.00;;;3.90;;
18947;SDS011;9607;51.600;7.558;2023-02-28T08:32:18;4.53;;;3.50;;
18947;SDS011;9607;51.600;7.558;2023-02-28T08:34:45;3.97;;;3.30;;
18947;SDS011;9607;51.600;7.558;2023-02-28T08:37:15;4.30;;;3.40;;
18947;SDS011;9607;51.600;7.558;2023-02-28T08:39:42;4.45;;;3.50;;
18947;SDS011;9607;51.600;7.558;2023-02-28T08:42:10;3.00;;;2.70;;
18947;SDS011;9607;51.600;7.558;2023-02-28T08:44:39;5.05;;;3.30;;
18947;SDS011;9607;51.600;7.558;2023-02-28T08:47:06;3.88;;;3.35;;
18947;SDS011;9607;51.600;7.558;2023-02-28T08:49:33;4.70;;;3.08;;
18947;SDS011;9607;51.600;7.558;2023-02-28T08:52:01;3.33;;;2.80;;
18947;SDS011;9607;51.600;7.558;2023-02-28T08:54:27;3.17;;;2.70;;
18947;SDS011;9607;51.600;7.558;2023-02-28T08:56:56;4.57;;;3.10;;
18947;SDS011;9607;51.600;7.558;2023-02-28T08:59:24;4.30;;;3.30;;
18947;SDS011;9607;51.600;7.558;2023-02-28T09:01:51;3.55;;;2.72;;
18947;SDS011;9607;51.600;7.558;2023-02-28T09:04:18;3.00;;;2.70;;
18947;SDS011;9607;51.600;7.558;2023-02-28T09:06:45;4.80;;;2.72;;
18947;SDS011;9607;51.600;7.558;2023-02-28T09:09:14;5.07;;;3.05;;
18947;SDS011;9607;51.600;7.558;2023-02-28T09:11:42;5.57;;;2.95;;
18947;SDS011;9607;51.600;7.558;2023-02-28T09:14:08;3.35;;;2.50;;
18947;SDS011;9607;51.600;7.558;2023-02-28T09:16:36;3.67;;;2.65;;
18947;SDS011;9607;51.600;7.558;2023-02-28T09:19:03;3.38;;;2.88;;
18947;SDS011;9607;51.600;7.558;2023-02-28T09:21:30;3.15;;;2.28;;
18947;SDS011;9607;51.600;7.558;2023-02-28T09:23:57;2.20;;;1.88;;
18947;SDS011;9607;51.600;7.558;2023-02-28T09:26:25;2.47;;;1.60;;
18947;SDS011;9607;51.600;7.558;2023-02-28T09:28:52;2.72;;;1.95;;
18947;SDS011;9607;51.600;7.558;2023-02-28T09:31:21;3.58;;;1.90;;
18947;SDS011;9607;51.600;7.558;2023-02-28T09:33:51;1.63;;;1.48;;
18947;SDS011;9607;51.600;7.558;2023-02-28T09:36:19;2.10;;;1.90;;
18947;SDS011;9607;51.600;7.558;2023-02-28T09:38:46;1.95;;;1.63;;
18947;SDS011;9607;51.600;7.558;2023-02-28T09:41:14;2.65;;;1.75;;
18947;SDS011;9607;51.600;7.558;2023-02-28T09:43:44;2.13;;;1.50;;
18947;SDS011;9607;51.600;7.558;2023-02-28T09:49:04;2.78;;;1.90;;
18947;SDS011;9607;51.600;7.558;2023-02-28T09:51:40;1.60;;;1.50;;
18947;SDS011;9607;51.600;7.558;2023-02-28T09:54:13;2.08;;;1.80;;
18947;SDS011;9607;51.600;7.558;2023-02-28T09:56:44;4.63;;;1.92;;
18947;SDS011;9607;51.600;7.558;2023-02-28T09:59:15;1.65;;;1.52;;
18947;SDS011;9607;51.600;7.558;2023-02-28T10:01:47;2.17;;;1.42;;
18947;SDS011;9607;51.600;7.558;2023-02-28T10:04:27;1.70;;;1.50;;
18947;SDS011;9607;51.600;7.558;2023-02-28T10:07:06;2.47;;;1.50;;
18947;SDS011;9607;51.600;7.558;2023-02-28T10:09:44;2.50;;;1.50;;
18947;SDS011;9607;51.600;7.558;2023-02-28T10:12:13;2.50;;;1.70;;
18947;SDS011;9607;51.600;7.558;2023-02-28T10:14:43;2.42;;;1.50;;
18947;SDS011;9607;51.600;7.558;2023-02-28T10:17:13;1.48;;;1.30;;
18947;SDS011;9607;51.600;7.558;2023-02-28T10:19:49;1.15;;;1.15;;
18947;SDS011;9607;51.600;7.558;2023-02-28T10:22:26;2.05;;;1.17;;
18947;SDS011;9607;51.600;7.558;2023-02-28T10:24:58;1.20;;;1.10;;
18947;SDS011;9607;51.600;7.558;2023-02-28T10:27:28;2.67;;;1.05;;
18947;SDS011;9607;51.600;7.558;2023-02-28T10:29:57;1.33;;;1.23;;
18947;SDS011;9607;51.600;7.558;2023-02-28T10:32:26;2.65;;;1.20;;
18947;SDS011;9607;51.600;7.558;2023-02-28T10:34:59;1.63;;;1.10;;
18947;SDS011;9607;51.600;7.558;2023-02-28T10:37:27;1.08;;;0.98;;
18947;SDS011;9607;51.600;7.558;2023-02-28T10:39:54;2.22;;;1.48;;
18947;SDS011;9607;51.600;7.558;2023-02-28T10:42:22;1.65;;;1.35;;
18947;SDS011;9607;51.600;7.558;2023-02-28T10:47:38;1.20;;;1.10;;
18947;SDS011;9607;51.600;7.558;2023-02-28T10:50:30;2.08;;;1.67;;
18947;SDS011;9607;51.600;7.558;2023-02-28T10:53:05;2.30;;;1.38;;
18947;SDS011;9607;51.600;7.558;2023-02-28T10:55:40;2.65;;;1.33;;
18947;SDS011;9607;51.600;7.558;2023-02-28T10:58:19;1.52;;;1.40;;
18947;SDS011;9607;51.600;7.558;2023-02-28T11:00:47;1.50;;;1.30;;
18947;SDS011;9607;51.600;7.558;2023-02-28T11:03:23;1.48;;;1.00;;
18947;SDS011;9607;51.600;7.558;2023-02-28T11:05:52;1.35;;;1.05;;
18947;SDS011;9607;51.600;7.558;2023-02-28T11:08:20;1.27;;;1.05;;
18947;SDS011;9607;51.600;7.558;2023-02-28T11:10:47;1.63;;;1.40;;
18947;SDS011;9607;51.600;7.558;2023-02-28T11:13:19;1.23;;;1.13;;
18947;SDS011;9607;51.600;7.558;2023-02-28T11:15:51;1.85;;;1.60;;
18947;SDS011;9607;51.600;7.558;2023-02-28T11:18:21;4.05;;;1.52;;
18947;SDS011;9607;51.600;7.558;2023-02-28T11:20:51;2.78;;;1.52;;
18947;SDS011;9607;51.600;7.558;2023-02-28T11:23:21;1.85;;;1.23;;
18947;SDS011;9607;51.600;7.558;2023-02-28T11:25:52;2.15;;;1.90;;
18947;SDS011;9607;51.600;7.558;2023-02-28T11:28:26;3.90;;;1.98;;
18947;SDS011;9607;51.600;7.558;2023-02-28T11:30:59;2.30;;;1.48;;
18947;SDS011;9607;51.600;7.558;2023-02-28T11:33:29;2.53;;;1.77;;
18947;SDS011;9607;51.600;7.558;2023-02-28T11:36:00;2.83;;;1.75;;
18947;SDS011;9607;51.600;7.558;2023-02-28T11:38:30;1.63;;;1.52;;
18947;SDS011;9607;51.600;7.558;2023-02-28T11:41:06;4.75;;;1.95;;
18947;SDS011;9607;51.600;7.558;2023-02-28T11:44:01;1.60;;;1.50;;
18947;SDS011;9607;51.600;7.558;2023-02-28T11:46:41;3.20;;;1.58;;
18947;SDS011;9607;51.600;7.558;2023-02-28T11:49:26;1.70;;;1.60;;
18947;SDS011;9607;51.600;7.558;2023-02-28T11:52:02;1.50;;;1.40;;
18947;SDS011;9607;51.600;7.558;2023-02-28T11:54:52;1.85;;;1.75;;
18947;SDS011;9607;51.600;7.558;2023-02-28T11:57:43;2.20;;;2.00;;
18947;SDS011;9607;51.600;7.558;2023-02-28T12:00:25;2.08;;;1.88;;
18947;SDS011;9607;51.600;7.558;2023-02-28T12:03:04;2.85;;;1.90;;
18947;SDS011;9607;51.600;7.558;2023-02-28T12:05:42;1.80;;;1.70;;
18947;SDS011;9607;51.600;7.558;2023-02-28T12:08:18;2.47;;;1.55;;
18947;SDS011;9607;51.600;7.558;2023-02-28T12:10:54;3.40;;;1.90;;
18947;SDS011;9607;51.600;7.558;2023-02-28T12:13:36;2.45;;;1.95;;
18947;SDS011;9607;51.600;7.558;2023-02-28T12:16:29;2.13;;;1.65;;
18947;SDS011;9607;51.600;7.558;2023-02-28T12:19:17;1.98;;;1.67;;
18947;SDS011;9607;51.600;7.558;2023-02-28T12:21:49;1.98;;;1.67;;
18947;SDS011;9607;51.600;7.558;2023-02-28T12:27:28;2.28;;;2.03;;
18947;SDS011;9607;51.600;7.558;2023-02-28T12:30:00;2.08;;;1.65;;
18947;SDS011;9607;51.600;7.558;2023-02-28T12:32:32;2.75;;;1.73;;
18947;SDS011;9607;51.600;7.558;2023-02-28T12:35:04;1.85;;;1.40;;
18947;SDS011;9607;51.600;7.558;2023-02-28T12:37:39;1.08;;;1.00;;
18947;SDS011;9607;51.600;7.558;2023-02-28T12:40:12;1.50;;;1.30;;
18947;SDS011;9607;51.600;7.558;2023-02-28T12:42:42;2.85;;;1.55;;
18947;SDS011;9607;51.600;7.558;2023-02-28T12:45:12;1.48;;;1.23;;
18947;SDS011;9607;51.600;7.558;2023-02-28T12:47:44;2.20;;;1.48;;
18947;SDS011;9607;51.600;7.558;2023-02-28T12:50:17;1.45;;;1.20;;
18947;SDS011;9607;51.600;7.558;2023-02-28T12:52:48;2.22;;;1.20;;
18947;SDS011;9607;51.600;7.558;2023-02-28T12:55:23;3.38;;;1.83;;
18947;SDS011;9607;51.600;7.558;2023-02-28T12:58:00;1.90;;;1.27;;
18947;SDS011;9607;51.600;7.558;2023-02-28T13:00:35;1.30;;;1.20;;
18947;SDS011;9607;51.600;7.558;2023-02-28T13:06:10;2.53;;;1.50;;
18947;SDS011;9607;51.600;7.558;2023-02-28T13:08:59;1.77;;;1.20;;
18947;SDS011;9607;51.600;7.558;2023-02-28T13:11:39;1.80;;;1.50;;
18947;SDS011;9607;51.600;7.558;2023-02-28T13:14:16;1.30;;;1.20;;
18947;SDS011;9607;51.600;7.558;2023-02-28T13:17:02;1.40;;;1.30;;
18947;SDS011;9607;51.600;7.558;2023-02-28T13:19:38;2.05;;;1.65;;
18947;SDS011;9607;51.600;7.558;2023-02-28T13:22:15;1.95;;;1.27;;
18947;SDS011;9607;51.600;7.558;2023-02-28T13:24:46;1.42;;;1.30;;
18947;SDS011;9607;51.600;7.558;2023-02-28T13:30:00;2.40;;;1.55;;
18947;SDS011;9607;51.600;7.558;2023-02-28T13:32:54;4.82;;;1.83;;
18947;SDS011;9607;51.600;7.558;2023-02-28T13:36:08;2.53;;;1.58;;
18947;SDS011;9607;51.600;7.558;2023-02-28T13:38:49;2.30;;;1.60;;
18947;SDS011;9607;51.600;7.558;2023-02-28T13:44:09;1.52;;;1.42;;
18947;SDS011;9607;51.600;7.558;2023-02-28T13:49:39;2.13;;;1.45;;
18947;SDS011;9607;51.600;7.558;2023-02-28T13:52:07;4.10;;;2.10;;
18947;SDS011;9607;51.600;7.558;2023-02-28T13:54:45;2.78;;;1.55;;
18947;SDS011;9607;51.600;7.558;2023-02-28T13:57:44;1.58;;;1.48;;
18947;SDS011;9607;51.600;7.558;2023-02-28T14:00:23;2.60;;;1.83;;
18947;SDS011;9607;51.600;7.558;2023-02-28T14:03:10;1.73;;;1.45;;
18947;SDS011;9607;51.600;7.558;2023-02-28T14:08:47;1.50;;;1.40;;
18947;SDS011;9607;51.600;7.558;2023-02-28T14:11:27;1.67;;;1.40;;
18947;SDS011;9607;51.600;7.558;2023-02-28T14:13:56;1.50;;;1.40;;
18947;SDS011;9607;51.600;7.558;2023-02-28T14:16:23;3.05;;;1.80;;
18947;SDS011;9607;51.600;7.558;2023-02-28T14:18:55;2.50;;;1.80;;
18947;SDS011;9607;51.600;7.558;2023-02-28T14:21:26;2.47;;;1.75;;
18947;SDS011;9607;51.600;7.558;2023-02-28T14:27:11;1.73;;;1.48;;
18947;SDS011;9607;51.600;7.558;2023-02-28T14:33:12;1.50;;;1.40;;
18947;SDS011;9607;51.600;7.558;2023-02-28T14:36:00;1.98;;;1.27;;
18947;SDS011;9607;51.600;7.558;2023-02-28T14:38:32;1.95;;;1.27;;
18947;SDS011;9607;51.600;7.558;2023-02-28T14:41:22;2.00;;;1.58;;
18947;SDS011;9607;51.600;7.558;2023-02-28T14:43:55;1.90;;;1.63;;
18947;SDS011;9607;51.600;7.558;2023-02-28T14:46:25;1.70;;;1.60;;
18947;SDS011;9607;51.600;7.558;2023-02-28T14:48:56;3.55;;;1.77;;
18947;SDS011;9607;51.600;7.558;2023-02-28T14:51:23;2.28;;;1.70;;
18947;SDS011;9607;51.600;7.558;2023-02-28T14:53:57;2.50;;;1.95;;
18947;SDS011;9607;51.600;7.558;2023-02-28T14:56:27;2.38;;;1.90;;
18947;SDS011;9607;51.600;7.558;2023-02-28T14:58:56;4.35;;;1.98;;
18947;SDS011;9607;51.600;7.558;2023-02-28T15:01:24;1.75;;;1.58;;
18947;SDS011;9607;51.600;7.558;2023-02-28T15:03:58;2.63;;;1.90;;
18947;SDS011;9607;51.600;7.558;2023-02-28T15:06:27;2.67;;;1.73;;
18947;SDS011;9607;51.600;7.558;2023-02-28T15:09:10;3.70;;;2.13;;
18947;SDS011;9607;51.600;7.558;2023-02-28T15:11:40;2.25;;;1.70;;
18947;SDS011;9607;51.600;7.558;2023-02-28T15:14:13;2.53;;;1.80;;
18947;SDS011;9607;51.600;7.558;2023-02-28T15:16:44;2.05;;;1.70;;
18947;SDS011;9607;51.600;7.558;2023-02-28T15:19:18;2.10;;;1.75;;
18947;SDS011;9607;51.600;7.558;2023-02-28T15:21:51;2.83;;;1.60;;
18947;SDS011;9607;51.600;7.558;2023-02-28T15:24:27;2.08;;;1.48;;
18947;SDS011;9607;51.600;7.558;2023-02-28T15:27:02;3.60;;;1.58;;
18947;SDS011;9607;51.600;7.558;2023-02-28T15:29:32;2.33;;;1.63;;
18947;SDS011;9607;51.600;7.558;2023-02-28T15:32:16;3.75;;;2.35;;
18947;SDS011;9607;51.600;7.558;2023-02-28T15:34:50;1.80;;;1.55;;
18947;SDS011;9607;51.600;7.558;2023-02-28T15:37:27;1.35;;;1.25;;
18947;SDS011;9607;51.600;7.558;2023-02-28T15:39:58;1.98;;;1.60;;
18947;SDS011;9607;51.600;7.558;2023-02-28T15:42:34;1.95;;;1.38;;
18947;SDS011;9607;51.600;7.558;2023-02-28T15:45:01;2.38;;;1.33;;
18947;SDS011;9607;51.600;7.558;2023-02-28T15:47:28;1.77;;;1.45;;
18947;SDS011;9607;51.600;7.558;2023-02-28T15:50:06;1.45;;;1.30;;
18947;SDS011;9607;51.600;7.558;2023-02-28T15:52:40;2.25;;;1.35;;
18947;SDS011;9607;51.600;7.558;2023-02-28T15:55:11;1.73;;;1.33;;